createdAt,value
2022-08-20T05:30:33.495Z,2.20
2022-08-20T05:33:00.742Z,2.13
2022-08-20T05:35:27.453Z,2.20
2022-08-20T05:37:54.132Z,2.30
2022-08-20T05:40:21.834Z,2.00
2022-08-20T05:42:48.341Z,2.45
2022-08-20T05:45:16.901Z,2.70
2022-08-20T05:47:44.545Z,2.30
2022-08-20T05:50:19.864Z,2.70
2022-08-20T05:52:49.749Z,2.70
2022-08-20T05:55:16.205Z,3.08
2022-08-20T05:57:42.576Z,2.90
2022-08-20T06:00:10.817Z,2.67
2022-08-20T06:02:55.831Z,2.85
2022-08-20T06:05:22.504Z,2.90
2022-08-20T06:07:50.575Z,2.95
2022-08-20T06:10:16.924Z,3.00
2022-08-20T06:12:45.879Z,3.13
2022-08-20T06:15:12.872Z,2.70
2022-08-20T06:17:39.736Z,2.17
2022-08-20T06:22:34.049Z,3.03
2022-08-20T06:25:00.692Z,2.90
2022-08-20T06:27:27.968Z,3.38
2022-08-20T06:29:54.382Z,2.40
2022-08-20T06:32:31.749Z,2.90
2022-08-20T06:35:01.810Z,3.13
2022-08-20T06:37:31.496Z,2.40
2022-08-20T06:40:00.794Z,2.60
2022-08-20T06:42:27.130Z,2.70
2022-08-20T06:44:53.398Z,3.00
2022-08-20T06:47:20.564Z,2.35
2022-08-20T06:49:47.645Z,2.10
2022-08-20T06:52:16.966Z,2.28
2022-08-20T06:54:43.909Z,2.25
2022-08-20T06:59:36.601Z,2.22
2022-08-20T07:02:03.081Z,2.38
2022-08-20T07:04:29.371Z,2.30
2022-08-20T07:06:57.451Z,2.20
2022-08-20T07:09:25.108Z,2.13
2022-08-20T07:11:52.190Z,2.38
2022-08-20T07:14:19.015Z,2.63
2022-08-20T07:21:39.945Z,2.15
2022-08-20T07:24:06.496Z,2.65
2022-08-20T07:26:32.988Z,2.10
2022-08-20T07:28:59.293Z,2.17
2022-08-20T07:31:44.323Z,3.60
2022-08-20T07:34:14.738Z,2.88
2022-08-20T07:36:41.175Z,2.20
2022-08-20T07:39:07.516Z,2.13
2022-08-20T07:41:35.739Z,2.10
2022-08-20T07:44:02.475Z,1.95
2022-08-20T07:48:57.717Z,2.13
2022-08-20T07:51:24.071Z,1.98
2022-08-20T07:53:51.606Z,1.70
2022-08-20T07:56:22.678Z,1.73
2022-08-20T07:58:52.672Z,1.88
2022-08-20T08:01:20.983Z,1.60
2022-08-20T08:03:50.170Z,1.55
2022-08-20T08:06:29.118Z,1.67
2022-08-20T08:08:57.340Z,1.38
2022-08-20T08:11:23.694Z,1.33
2022-08-20T08:13:50.007Z,1.65
2022-08-20T08:16:16.372Z,1.60
2022-08-20T08:18:49.748Z,1.60
2022-08-20T08:21:17.643Z,1.77
2022-08-20T08:23:44.842Z,1.80
2022-08-20T08:26:15.890Z,1.58
2022-08-20T08:28:44.498Z,1.92
2022-08-20T08:31:11.284Z,1.70
2022-08-20T08:36:05.785Z,1.50
2022-08-20T08:38:35.000Z,1.60
2022-08-20T08:41:15.459Z,1.50
2022-08-20T08:43:42.061Z,1.75
2022-08-20T08:46:10.497Z,2.00
2022-08-20T08:48:47.649Z,1.40
2022-08-20T08:51:16.334Z,1.98
2022-08-20T08:53:54.671Z,1.60
2022-08-20T08:56:23.268Z,1.55
2022-08-20T08:58:49.699Z,1.30
2022-08-20T09:01:54.368Z,1.33
2022-08-20T09:04:06.743Z,1.20
2022-08-20T09:06:33.064Z,1.40
2022-08-20T09:09:01.631Z,1.50
2022-08-20T09:11:28.569Z,1.45
2022-08-20T09:13:55.217Z,1.15
2022-08-20T09:18:49.304Z,1.00
2022-08-20T09:23:42.126Z,0.70
2022-08-20T09:28:35.283Z,0.68
2022-08-20T09:31:04.471Z,0.70
2022-08-20T09:33:32.794Z,1.20
2022-08-20T09:35:59.146Z,0.70
2022-08-20T09:38:25.427Z,1.00
2022-08-20T09:40:51.676Z,0.80
2022-08-20T09:43:17.967Z,0.80
2022-08-20T09:45:44.232Z,0.60
2022-08-20T09:48:10.705Z,0.68
2022-08-20T09:50:38.931Z,0.98
2022-08-20T09:53:05.964Z,0.80
2022-08-20T09:55:36.400Z,0.70
2022-08-20T09:58:25.785Z,0.70
2022-08-20T10:00:52.169Z,0.90
2022-08-20T10:03:18.778Z,0.60
2022-08-20T10:08:11.883Z,0.65
2022-08-20T10:10:38.156Z,0.50
2022-08-20T10:13:04.472Z,0.55
2022-08-20T10:15:30.967Z,0.70
2022-08-20T10:20:24.541Z,0.68
2022-08-20T10:22:51.216Z,0.50
2022-08-20T10:25:17.793Z,0.70
2022-08-20T10:27:44.795Z,0.40
2022-08-20T10:30:11.214Z,1.00
2022-08-20T10:35:04.287Z,0.75
2022-08-20T10:37:30.560Z,0.47
2022-08-20T10:39:56.880Z,0.50
2022-08-20T10:42:23.404Z,0.40
2022-08-20T10:44:49.821Z,0.40
2022-08-20T10:47:18.062Z,0.50
2022-08-20T10:49:44.717Z,0.40
2022-08-20T10:52:11.148Z,0.60
2022-08-20T10:54:41.319Z,0.60
2022-08-20T10:57:08.459Z,0.82
2022-08-20T10:59:38.004Z,0.50
2022-08-20T11:02:04.356Z,0.55
2022-08-20T11:04:30.983Z,0.68
2022-08-20T11:06:57.224Z,0.50
2022-08-20T11:09:23.473Z,0.80
2022-08-20T11:14:15.933Z,0.50
2022-08-20T11:16:42.277Z,0.40
2022-08-20T11:19:08.556Z,0.32
2022-08-20T11:21:34.805Z,0.95
2022-08-20T11:24:03.078Z,0.40
2022-08-20T11:26:29.577Z,0.45
2022-08-20T11:28:56.033Z,0.40
2022-08-20T11:31:22.315Z,0.35
2022-08-20T11:33:48.673Z,0.40
2022-08-20T11:36:14.931Z,0.63
2022-08-20T11:38:41.189Z,0.38
2022-08-20T11:41:07.463Z,0.40
2022-08-20T11:43:33.719Z,0.70
2022-08-20T11:45:59.990Z,0.52
2022-08-20T11:48:26.260Z,0.45
2022-08-20T11:50:52.713Z,0.65
2022-08-20T11:53:18.990Z,0.45
2022-08-20T11:55:45.742Z,0.40
2022-08-20T11:58:12.148Z,0.47
2022-08-20T12:00:38.404Z,0.45
2022-08-20T12:03:09.144Z,0.40
2022-08-20T12:05:36.760Z,0.60
2022-08-20T12:08:03.652Z,0.45
2022-08-20T12:10:30.252Z,0.28
2022-08-20T12:12:56.810Z,0.43
2022-08-20T12:15:23.848Z,0.40
2022-08-20T12:17:50.124Z,0.40
2022-08-20T12:20:16.446Z,0.50
2022-08-20T12:22:43.805Z,0.38
2022-08-20T12:25:10.849Z,0.30
2022-08-20T12:27:37.647Z,0.32
2022-08-20T12:30:11.397Z,0.40
2022-08-20T12:32:37.830Z,0.50
2022-08-20T12:35:05.237Z,0.93
2022-08-20T12:37:32.022Z,0.60
2022-08-20T12:39:59.662Z,0.40
2022-08-20T12:42:26.859Z,0.93
2022-08-20T12:44:53.162Z,0.57
2022-08-20T12:47:27.106Z,0.63
2022-08-20T12:49:55.124Z,0.47
2022-08-20T12:52:21.962Z,0.35
2022-08-20T12:54:48.391Z,0.50
2022-08-20T12:57:16.431Z,0.70
2022-08-20T12:59:42.883Z,0.85
2022-08-20T13:02:14.232Z,0.63
2022-08-20T13:04:45.211Z,0.50
2022-08-20T13:07:12.899Z,0.55
2022-08-20T13:09:40.445Z,1.30
2022-08-20T13:12:07.279Z,1.33
2022-08-20T13:14:34.319Z,1.27
2022-08-20T13:17:01.018Z,1.40
2022-08-20T13:19:27.885Z,1.20
2022-08-20T13:21:55.121Z,1.10
2022-08-20T13:24:21.801Z,1.10
2022-08-20T13:26:48.111Z,1.20
2022-08-20T13:29:14.409Z,1.30
2022-08-20T13:31:41.445Z,1.00
2022-08-20T13:34:07.757Z,1.35
2022-08-20T13:36:34.670Z,1.40
2022-08-20T13:39:01.320Z,1.00
2022-08-20T13:41:27.634Z,1.23
2022-08-20T13:43:53.959Z,1.35
2022-08-20T13:46:20.276Z,1.20
2022-08-20T13:48:46.554Z,1.00
2022-08-20T13:51:12.876Z,1.35
2022-08-20T13:53:39.137Z,1.40
2022-08-20T13:56:05.516Z,1.52
2022-08-20T13:58:31.789Z,1.30
2022-08-20T14:00:58.091Z,1.30
2022-08-20T14:03:25.235Z,1.80
2022-08-20T14:05:52.085Z,1.40
2022-08-20T14:08:20.115Z,1.67
2022-08-20T14:10:51.320Z,1.35
2022-08-20T14:13:18.765Z,1.60
2022-08-20T14:15:45.571Z,1.25
2022-08-20T14:18:12.643Z,1.40
2022-08-20T14:20:38.987Z,1.80
2022-08-20T14:23:05.477Z,1.23
2022-08-20T14:25:31.928Z,1.52
2022-08-20T14:27:58.624Z,1.52
2022-08-20T14:30:26.870Z,1.40
2022-08-20T14:32:53.591Z,1.05
2022-08-20T14:35:20.556Z,1.38
2022-08-20T14:37:48.097Z,1.17
2022-08-20T14:40:15.743Z,1.10
2022-08-20T14:42:43.274Z,1.27
2022-08-20T14:45:11.136Z,1.50
2022-08-20T14:47:39.115Z,1.30
2022-08-20T14:50:19.609Z,1.45
2022-08-20T14:52:46.334Z,1.00
2022-08-20T14:55:14.415Z,1.52
2022-08-20T14:57:41.303Z,1.58
2022-08-20T15:00:11.700Z,1.30
2022-08-20T15:02:38.506Z,1.05
2022-08-20T15:05:07.077Z,1.15
2022-08-20T15:07:35.208Z,1.02
2022-08-20T15:10:02.572Z,1.00
2022-08-20T15:12:29.271Z,1.10
2022-08-20T15:14:55.585Z,1.10
2022-08-20T15:17:27.360Z,1.05
2022-08-20T15:19:53.833Z,1.40
2022-08-20T15:22:20.360Z,1.10
2022-08-20T15:24:46.644Z,1.33
2022-08-20T15:27:19.119Z,1.35
2022-08-20T15:29:48.637Z,1.02
2022-08-20T15:32:14.912Z,1.13
2022-08-20T15:34:41.935Z,1.10
2022-08-20T15:37:08.250Z,0.90
2022-08-20T15:39:34.673Z,1.27
2022-08-20T15:42:00.939Z,0.98
2022-08-20T15:44:27.196Z,1.10
2022-08-20T15:46:53.571Z,0.80
2022-08-20T15:49:19.902Z,0.88
2022-08-20T15:51:47.315Z,1.10
2022-08-20T15:54:17.074Z,1.30
2022-08-20T15:56:43.364Z,1.20
2022-08-20T15:59:28.090Z,1.25
2022-08-20T16:02:07.530Z,0.90
2022-08-20T16:04:33.804Z,1.10
2022-08-20T16:07:03.953Z,1.10
2022-08-20T16:09:55.713Z,0.90
2022-08-20T16:12:33.271Z,1.08
2022-08-20T16:15:00.962Z,0.95
2022-08-20T16:17:36.832Z,1.20
2022-08-20T16:20:22.112Z,0.88
2022-08-20T16:22:49.030Z,1.10
2022-08-20T16:25:22.650Z,1.33
2022-08-20T16:27:59.903Z,3.25
2022-08-20T16:30:35.259Z,2.33
2022-08-20T16:33:21.413Z,2.10
2022-08-20T16:35:47.652Z,1.20
2022-08-20T16:38:31.333Z,1.30
2022-08-20T16:41:06.606Z,1.42
2022-08-20T16:43:34.949Z,2.13
2022-08-20T16:46:06.139Z,1.95
2022-08-20T16:48:35.612Z,2.45
2022-08-20T16:51:05.176Z,1.83
2022-08-20T16:53:31.510Z,1.67
2022-08-20T16:55:57.808Z,1.75
2022-08-20T16:58:24.209Z,1.70
2022-08-20T17:01:04.198Z,1.60
2022-08-20T17:03:31.432Z,1.65
2022-08-20T17:06:14.240Z,1.70
2022-08-20T17:08:55.992Z,1.80
2022-08-20T17:11:28.913Z,1.60
2022-08-20T17:14:04.464Z,1.50
2022-08-20T17:16:35.451Z,1.30
2022-08-20T17:19:10.092Z,1.45
2022-08-20T17:21:40.160Z,1.90
2022-08-20T17:24:27.969Z,1.17
2022-08-20T17:26:57.432Z,1.25
2022-08-20T17:29:25.629Z,1.30
2022-08-20T17:31:53.637Z,1.77
2022-08-20T17:34:25.498Z,1.05
2022-08-20T17:37:02.731Z,1.27
2022-08-20T17:39:29.546Z,1.33
2022-08-20T17:42:06.892Z,1.15
2022-08-20T17:44:35.798Z,1.25
2022-08-20T17:47:05.032Z,1.30
2022-08-20T17:49:44.923Z,1.08
2022-08-20T17:52:30.062Z,1.20
2022-08-20T17:54:56.374Z,1.10
2022-08-20T17:57:25.374Z,1.10
2022-08-20T18:00:00.184Z,1.10
2022-08-20T18:02:28.998Z,1.07
2022-08-20T18:04:55.732Z,1.20
2022-08-20T18:07:25.034Z,1.40
2022-08-20T18:10:01.716Z,0.85
2022-08-20T18:12:41.151Z,1.13
2022-08-20T18:15:13.406Z,1.50
2022-08-20T18:17:55.049Z,1.20
2022-08-20T18:20:37.738Z,1.10
2022-08-20T18:23:10.209Z,1.17
2022-08-20T18:25:47.825Z,1.40
2022-08-20T18:28:27.568Z,1.48
2022-08-20T18:30:57.235Z,1.13
2022-08-20T18:33:26.688Z,1.40
2022-08-20T18:36:02.788Z,1.40
2022-08-20T18:38:30.422Z,1.08
2022-08-20T18:41:07.155Z,1.52
2022-08-20T18:43:33.569Z,1.38
2022-08-20T18:46:09.846Z,1.60
2022-08-20T18:48:36.194Z,1.20
2022-08-20T18:51:07.598Z,1.20
2022-08-20T18:53:34.669Z,1.35
2022-08-20T18:56:06.362Z,1.42
2022-08-20T18:58:32.642Z,1.35
2022-08-20T19:01:00.012Z,1.20
2022-08-20T19:03:30.429Z,1.40
2022-08-20T19:06:08.464Z,1.38
2022-08-20T19:08:41.505Z,1.73
2022-08-20T19:11:26.406Z,1.33
2022-08-20T19:14:11.666Z,1.50
2022-08-20T19:16:47.372Z,1.27
2022-08-20T19:19:16.117Z,1.70
2022-08-20T19:21:42.814Z,1.38
2022-08-20T19:26:47.919Z,1.70
2022-08-20T19:29:15.947Z,1.50
2022-08-20T19:31:42.765Z,1.65
2022-08-20T19:34:19.558Z,1.60
2022-08-20T19:36:53.124Z,1.42
2022-08-20T19:39:21.401Z,1.42
2022-08-20T19:42:09.067Z,1.25
2022-08-20T19:44:38.074Z,1.52
2022-08-20T19:47:04.761Z,2.40
2022-08-20T19:52:06.374Z,1.63
2022-08-20T19:54:43.430Z,1.48
2022-08-20T19:57:10.448Z,1.80
2022-08-20T19:59:36.716Z,1.83
2022-08-20T20:02:04.940Z,1.10
2022-08-20T20:04:55.685Z,1.77
2022-08-20T20:07:41.618Z,1.70
2022-08-20T20:10:11.332Z,1.50
2022-08-20T20:12:38.564Z,2.25
2022-08-20T20:15:05.803Z,1.92
2022-08-20T20:17:34.023Z,1.80
2022-08-20T20:20:01.717Z,2.30
2022-08-20T20:22:32.795Z,2.17
2022-08-20T20:25:05.094Z,1.98
2022-08-20T20:27:32.145Z,2.30
2022-08-20T20:30:00.024Z,2.20
2022-08-20T20:32:26.603Z,2.72
2022-08-20T20:34:56.086Z,2.90
2022-08-20T20:37:49.903Z,2.00
2022-08-20T20:40:30.346Z,2.05
2022-08-20T20:43:02.154Z,2.05
2022-08-20T20:45:33.218Z,1.80
2022-08-20T20:47:59.728Z,2.33
2022-08-20T20:50:30.651Z,3.00
2022-08-20T20:52:57.892Z,4.40
2022-08-20T20:55:26.183Z,4.43
2022-08-20T20:57:52.913Z,5.28
2022-08-20T21:00:21.348Z,4.13
2022-08-20T21:02:48.247Z,4.30
2022-08-20T21:07:51.281Z,3.97
2022-08-20T21:10:18.841Z,4.32
2022-08-20T21:12:48.057Z,4.18
2022-08-20T21:15:20.421Z,4.45
2022-08-20T21:17:46.757Z,4.45
2022-08-20T21:20:13.113Z,5.07
2022-08-20T21:22:39.408Z,3.88
2022-08-20T21:25:05.810Z,4.70
2022-08-20T21:27:32.871Z,4.88
2022-08-20T21:29:59.141Z,4.15
2022-08-20T21:32:25.415Z,5.18
2022-08-20T21:34:51.750Z,5.65
2022-08-20T21:37:18.199Z,5.07
2022-08-20T21:39:44.585Z,4.30
2022-08-20T21:42:28.695Z,4.07
2022-08-20T21:44:55.861Z,5.28
2022-08-20T21:47:22.120Z,5.50
2022-08-20T21:49:48.421Z,5.97
2022-08-20T21:52:14.677Z,4.85
2022-08-20T21:54:40.942Z,5.50
2022-08-20T21:57:08.882Z,4.35
2022-08-20T21:59:36.149Z,4.25
2022-08-20T22:02:03.093Z,5.13
2022-08-20T22:06:59.891Z,5.28
2022-08-20T22:09:26.242Z,4.10
2022-08-20T22:11:55.162Z,4.35
2022-08-20T22:14:23.097Z,3.97
2022-08-20T22:16:49.460Z,4.20
2022-08-20T22:19:16.388Z,3.40
2022-08-20T22:21:42.825Z,3.42
2022-08-20T22:24:10.550Z,3.65
2022-08-20T22:26:38.433Z,4.25
2022-08-20T22:29:05.316Z,3.30
2022-08-20T22:33:57.922Z,5.38
2022-08-20T22:36:26.260Z,4.45
2022-08-20T22:38:54.755Z,4.30
2022-08-20T22:41:21.537Z,4.72
2022-08-20T22:43:56.698Z,4.40
2022-08-20T22:46:25.164Z,4.25
2022-08-20T22:48:53.284Z,5.45
2022-08-20T22:51:22.224Z,3.58
2022-08-20T22:53:49.575Z,4.70
2022-08-20T22:58:48.225Z,4.28
2022-08-20T23:01:16.863Z,3.85
2022-08-20T23:03:43.469Z,4.30
2022-08-20T23:06:10.427Z,4.60
2022-08-20T23:08:37.938Z,4.30
2022-08-20T23:11:04.260Z,4.38
2022-08-20T23:13:30.559Z,4.43
2022-08-20T23:15:57.205Z,5.43
2022-08-20T23:18:23.685Z,5.93
2022-08-20T23:20:52.609Z,7.65
2022-08-20T23:23:19.428Z,5.80
